Time;durP1;ratioP1;P1;durP2;ratioP2;P2;SDS_P1;SDS_P2;PMS_P1;PMS_P2;Temp;Humidity;BMP_temperature;BMP_pressure;BME280_temperature;BME280_humidity;BME280_pressure;Samples;Min_cycle;Max_cycle;Signal;HPM_P1;HPM_P2
2022/03/26 00:02:04;;;;;;;;;;;5.50;99.90;;;;;;5091993;28;20118;-85
2022/03/26 00:04:50;;;;;;;113.75;54.90;;;5.50;99.90;;;;;;5077376;28;20004;-85
2022/03/26 00:07:35;;;;;;;110.72;56.20;;;5.40;99.90;;;;;;5120687;27;20043;-85
2022/03/26 00:10:19;;;;;;;118.65;57.03;;;7.80;99.90;;;;;;5091934;28;20067;-85
2022/03/26 00:13:04;;;;;;;117.15;56.65;;;4.20;99.90;;;;;;5090979;28;20055;-85
2022/03/26 00:15:48;;;;;;;113.45;56.97;;;5.40;99.90;;;;;;5106101;27;20043;-85
2022/03/26 00:18:33;;;;;;;116.93;54.25;;;6.90;99.90;;;;;;5091558;28;20105;-85
2022/03/26 00:21:17;;;;;;;114.18;55.13;;;5.60;99.90;;;;;;5090822;28;20846;-85
2022/03/26 00:24:06;;;;;;;124.15;57.42;;;6.30;99.90;;;;;;5091047;28;20039;-86
2022/03/26 00:26:52;;;;;;;110.53;54.90;;;5.30;99.90;;;;;;5091761;28;20117;-85
2022/03/26 00:29:39;;;;;;;118.90;56.88;;;5.30;99.90;;;;;;5090705;28;20071;-85
2022/03/26 00:32:24;;;;;;;111.05;53.70;;;5.30;99.90;;;;;;5091182;28;20070;-85
2022/03/26 00:35:11;;;;;;;110.18;54.25;;;7.30;99.90;;;;;;5090829;28;20070;-85
2022/03/26 00:37:55;;;;;;;113.70;55.38;;;5.20;99.90;;;;;;5091485;28;20034;-85
2022/03/26 00:40:41;;;;;;;118.78;54.83;;;6.00;99.90;;;;;;5091705;28;20106;-85
2022/03/26 00:43:25;;;;;;;111.18;54.28;;;6.00;99.90;;;;;;5091275;28;20035;-85
2022/03/26 00:46:10;;;;;;;122.53;59.20;;;6.40;99.90;;;;;;5076890;28;20043;-84
2022/03/26 00:48:56;;;;;;;121.38;58.65;;;5.40;99.90;;;;;;5092911;28;20043;-85
2022/03/26 00:51:41;;;;;;;118.40;56.22;;;6.90;99.90;;;;;;5120441;28;20047;-85
2022/03/26 00:54:25;;;;;;;128.50;60.17;;;7.30;99.90;;;;;;5120088;28;20170;-85
2022/03/26 00:57:10;;;;;;;126.10;61.15;;;6.80;99.90;;;;;;5091057;28;20175;-85
2022/03/26 00:59:54;;;;;;;138.70;62.67;;;5.10;99.90;;;;;;5077291;28;20088;-86
2022/03/26 01:02:39;;;;;;;135.10;65.03;;;5.10;99.90;;;;;;5106549;28;20090;-85
2022/03/26 01:05:26;;;;;;;135.13;64.03;;;5.00;99.90;;;;;;5092793;28;20039;-85
2022/03/26 01:08:11;;;;;;;124.25;59.97;;;5.00;99.90;;;;;;5092455;28;20533;-85
2022/03/26 01:10:56;;;;;;;119.45;58.67;;;5.20;99.90;;;;;;5094357;28;20043;-85
2022/03/26 01:13:42;;;;;;;;;;;6.10;99.90;;;;;;5095093;28;20070;-85
2022/03/26 01:16:27;;;;;;;117.75;55.53;;;4.90;99.90;;;;;;5091616;28;19911;-85
2022/03/26 01:19:12;;;;;;;114.30;54.45;;;5.10;99.90;;;;;;5098936;28;20043;-84
2022/03/26 01:22:01;;;;;;;125.03;58.78;;;5.90;99.90;;;;;;5082309;28;20066;-85
2022/03/26 01:24:45;;;;;;;124.78;59.63;;;6.10;99.90;;;;;;5099163;28;20063;-85
2022/03/26 01:27:30;;;;;;;118.07;58.55;;;4.90;99.90;;;;;;5099185;28;20040;-84
2022/03/26 01:30:15;;;;;;;125.85;57.95;;;5.80;99.90;;;;;;5099362;28;20100;-84
2022/03/26 01:33:02;;;;;;;127.47;61.85;;;6.80;99.90;;;;;;5091359;28;20061;-85
2022/03/26 01:35:46;;;;;;;133.18;59.38;;;6.80;99.90;;;;;;5090869;28;20039;-85
2022/03/26 01:38:30;;;;;;;;;;;4.80;99.90;;;;;;5091842;28;20833;-85
2022/03/26 01:41:14;;;;;;;126.75;58.90;;;6.30;99.90;;;;;;5092246;28;19930;-85
2022/03/26 01:44:00;;;;;;;124.68;58.50;;;6.90;99.90;;;;;;5094469;28;20042;-85
2022/03/26 01:46:48;;;;;;;123.32;57.15;;;5.70;99.90;;;;;;5094512;28;20031;-85
2022/03/26 01:49:33;;;;;;;127.22;60.10;;;5.20;99.90;;;;;;5093848;28;20113;-85
2022/03/26 01:52:18;;;;;;;128.88;59.95;;;4.60;99.90;;;;;;5093843;28;20161;-85
2022/03/26 01:55:02;;;;;;;124.70;60.63;;;5.50;99.90;;;;;;5094366;28;20555;-85
2022/03/26 01:57:48;;;;;;;129.85;60.47;;;4.60;99.90;;;;;;5094291;28;20039;-85
2022/03/26 02:00:34;;;;;;;133.10;60.17;;;4.40;99.90;;;;;;5093666;28;20297;-85
2022/03/26 02:03:19;;;;;;;123.05;59.10;;;5.20;99.90;;;;;;5093610;28;20105;-85
2022/03/26 02:06:03;;;;;;;133.75;62.85;;;4.50;99.90;;;;;;5094095;28;20085;-86
2022/03/26 02:08:50;;;;;;;140.00;62.92;;;4.50;99.90;;;;;;5079816;28;20047;-85
2022/03/26 02:11:38;;;;;;;137.35;63.92;;;4.50;99.90;;;;;;5107953;28;20526;-85
2022/03/26 02:14:24;;;;;;;145.88;64.40;;;4.80;99.90;;;;;;5094573;28;20105;-85
2022/03/26 02:17:10;;;;;;;130.38;59.92;;;5.40;99.90;;;;;;5108748;28;20042;-85
2022/03/26 02:19:59;;;;;;;141.10;62.60;;;6.90;99.90;;;;;;5122858;27;20407;-85
2022/03/26 02:22:46;;;;;;;132.48;61.92;;;5.50;99.90;;;;;;5093918;28;20043;-85
2022/03/26 02:25:30;;;;;;;132.70;60.90;;;4.40;99.90;;;;;;5122048;27;20101;-85
2022/03/26 02:28:16;;;;;;;129.77;59.03;;;4.90;99.90;;;;;;5107935;28;20119;-86
2022/03/26 02:31:00;;;;;;;128.55;60.45;;;5.90;99.90;;;;;;5093571;28;20047;-85
2022/03/26 02:33:46;;;;;;;137.75;63.60;;;4.40;99.90;;;;;;5094611;28;20495;-85
2022/03/26 02:36:30;;;;;;;137.13;62.30;;;4.30;99.90;;;;;;5078629;28;20408;-85
2022/03/26 02:39:14;;;;;;;123.03;58.95;;;4.50;99.90;;;;;;5093468;28;20059;-85
2022/03/26 02:41:58;;;;;;;;;;;4.90;99.90;;;;;;5094948;28;20093;-85
2022/03/26 02:44:43;;;;;;;100.35;44.33;;;4.30;99.90;;;;;;5094223;28;19931;-85
2022/03/26 02:47:27;;;;;;;132.98;61.40;;;5.80;99.90;;;;;;5121578;27;20043;-85
2022/03/26 02:50:12;;;;;;;125.40;58.35;;;4.50;99.90;;;;;;5078839;28;20424;-85
2022/03/26 02:52:56;;;;;;;140.75;62.92;;;5.60;99.90;;;;;;5093526;28;20498;-85
2022/03/26 02:55:41;;;;;;;135.50;61.92;;;6.10;99.90;;;;;;5107076;27;20047;-85
2022/03/26 02:58:26;;;;;;;133.50;63.08;;;4.20;99.90;;;;;;5121434;27;20226;-85
2022/03/26 03:01:10;;;;;;;;;;;4.20;99.90;;;;;;5093367;28;20412;-85
2022/03/26 03:03:54;;;;;;;132.15;60.97;;;5.80;99.90;;;;;;5122107;27;19919;-85
2022/03/26 03:06:38;;;;;;;132.70;60.78;;;4.10;99.90;;;;;;5106904;28;20101;-85
2022/03/26 03:09:23;;;;;;;137.95;62.55;;;5.80;99.90;;;;;;5106748;28;20051;-85
2022/03/26 03:12:07;;;;;;;;;;;4.10;99.90;;;;;;5094209;28;20102;-86
2022/03/26 03:14:51;;;;;;;129.85;58.85;;;4.10;99.90;;;;;;5121526;27;19942;-85
2022/03/26 03:17:43;;;;;;;132.02;60.88;;;4.00;99.90;;;;;;5106701;28;20085;-85
2022/03/26 03:20:29;;;;;;;139.07;62.72;;;4.70;99.90;;;;;;5093116;28;20059;-85
2022/03/26 03:23:13;;;;;;;151.90;64.25;;;5.40;99.90;;;;;;5092608;28;20043;-84
2022/03/26 03:25:58;;;;;;;140.20;65.47;;;4.00;99.90;;;;;;5094737;28;20097;-85
2022/03/26 03:28:43;;;;;;;145.77;66.18;;;4.00;99.90;;;;;;5082832;28;20059;-85
2022/03/26 03:31:28;;;;;;;143.57;66.05;;;4.00;99.90;;;;;;5112158;28;20050;-85
2022/03/26 03:34:13;;;;;;;142.77;65.78;;;3.90;99.90;;;;;;5098502;28;20490;-85
2022/03/26 03:36:57;;;;;;;152.13;68.30;;;3.90;99.90;;;;;;5113874;28;20035;-85
2022/03/26 03:39:41;;;;;;;;;;;5.30;99.90;;;;;;5113575;28;20042;-85
2022/03/26 03:42:25;;;;;;;105.97;47.28;;;3.90;99.90;;;;;;5113373;28;19914;-86
2022/03/26 03:45:12;;;;;;;155.43;66.32;;;5.30;99.90;;;;;;5083787;28;20085;-84
2022/03/26 03:47:57;;;;;;;157.10;66.10;;;4.90;99.90;;;;;;5112626;28;20031;-85
2022/03/26 03:50:42;;;;;;;144.77;65.65;;;3.90;99.90;;;;;;5112700;28;20502;-85
2022/03/26 03:53:26;;;;;;;137.27;62.95;;;4.40;99.90;;;;;;5112241;28;20544;-86
2022/03/26 03:56:11;;;;;;;153.63;64.10;;;4.20;99.90;;;;;;5112344;28;20080;-85
2022/03/26 03:58:57;;;;;;;153.95;65.38;;;4.70;99.90;;;;;;5141556;27;20054;-84
2022/03/26 04:01:42;;;;;;;158.75;67.50;;;3.80;99.90;;;;;;5112698;28;20089;-84
2022/03/26 04:04:26;;;;;;;141.32;66.15;;;4.90;99.90;;;;;;5097872;28;20485;-86
2022/03/26 04:07:10;;;;;;;152.50;64.18;;;3.80;99.90;;;;;;5141541;27;20034;-85
2022/03/26 04:09:55;;;;;;;144.68;66.07;;;4.40;99.90;;;;;;5097827;28;20047;-85
2022/03/26 04:12:44;;;;;;;154.35;67.28;;;4.40;99.90;;;;;;5096966;28;20078;-85
2022/03/26 04:15:29;;;;;;;148.70;66.13;;;4.00;99.90;;;;;;5111735;28;20053;-86
2022/03/26 04:18:13;;;;;;;163.68;66.88;;;4.00;99.90;;;;;;5112952;28;20078;-84
2022/03/26 04:20:58;;;;;;;163.20;67.25;;;3.70;99.90;;;;;;5112060;28;20043;-85
2022/03/26 04:23:43;;;;;;;147.27;65.07;;;3.90;99.90;;;;;;5112412;28;20088;-85
2022/03/26 04:26:30;;;;;;;169.57;69.25;;;5.30;99.90;;;;;;5112956;28;20054;-85
2022/03/26 04:29:15;;;;;;;161.20;67.68;;;3.70;99.90;;;;;;5097653;28;20114;-85
2022/03/26 04:31:59;;;;;;;;;;;3.70;99.90;;;;;;5126892;27;20046;-85
2022/03/26 04:34:43;;;;;;;153.95;64.57;;;4.70;99.90;;;;;;5111336;28;20006;-85
2022/03/26 04:37:28;;;;;;;175.52;70.40;;;4.00;99.90;;;;;;5110984;28;20134;-85
2022/03/26 04:40:14;;;;;;;185.82;71.22;;;5.10;99.90;;;;;;5111083;28;20050;-84
2022/03/26 04:42:58;;;;;;;166.88;70.28;;;3.60;99.90;;;;;;5083386;28;20105;-84
2022/03/26 04:45:42;;;;;;;;;;;4.10;99.90;;;;;;5112723;28;20126;-85
2022/03/26 04:48:26;;;;;;;156.50;65.40;;;3.50;99.90;;;;;;5112652;28;19922;-85
2022/03/26 04:51:10;;;;;;;169.85;67.90;;;3.50;99.90;;;;;;5111542;28;20088;-84
2022/03/26 04:53:54;;;;;;;152.70;66.75;;;5.10;99.90;;;;;;5111173;28;20031;-85
2022/03/26 04:56:38;;;;;;;;;;;5.30;99.90;;;;;;5125995;28;20115;-85
2022/03/26 04:59:23;;;;;;;138.18;59.00;;;3.90;99.90;;;;;;5097170;28;19973;-84
2022/03/26 05:02:07;;;;;;;155.90;63.72;;;4.70;99.90;;;;;;5126075;28;20042;-85
2022/03/26 05:04:51;;;;;;;166.13;66.55;;;3.40;99.90;;;;;;5096637;28;20501;-84
2022/03/26 05:07:46;;;;;;;165.75;67.93;;;3.40;99.90;;;;;;5082854;28;20042;-86
2022/03/26 05:10:31;;;;;;;164.95;68.13;;;4.70;99.90;;;;;;5098549;28;20138;-85
2022/03/26 05:13:15;;;;;;;;;;;5.20;99.90;;;;;;5111711;28;20457;-85
2022/03/26 05:15:59;;;;;;;164.65;68.65;;;4.40;99.90;;;;;;5111691;28;20413;-85
2022/03/26 05:18:43;;;;;;;158.90;69.05;;;3.30;99.90;;;;;;5115006;28;20122;-85
2022/03/26 05:21:30;;;;;;;149.65;64.18;;;3.70;99.90;;;;;;5130320;27;20072;-85
2022/03/26 05:24:14;;;;;;;168.52;68.53;;;3.30;99.90;;;;;;5115291;28;20043;-84
2022/03/26 05:26:59;;;;;;;167.73;69.90;;;3.30;99.90;;;;;;5115000;28;20043;-85
2022/03/26 05:29:46;;;;;;;166.27;69.47;;;3.70;99.90;;;;;;5116396;28;20035;-85
2022/03/26 05:32:32;;;;;;;167.48;70.63;;;4.20;99.90;;;;;;5111838;28;20556;-84
2022/03/26 05:35:16;;;;;;;171.90;68.70;;;4.70;99.90;;;;;;5129378;28;20058;-85
2022/03/26 05:38:01;;;;;;;162.68;68.20;;;3.30;99.90;;;;;;5128439;28;20042;-84
2022/03/26 05:40:45;;;;;;;164.32;65.65;;;3.30;99.90;;;;;;5158065;27;20544;-84
2022/03/26 05:43:30;;;;;;;155.55;66.72;;;3.50;99.90;;;;;;5128999;28;20118;-84
2022/03/26 05:46:15;;;;;;;165.93;71.32;;;3.30;99.90;;;;;;5130026;28;20042;-85
2022/03/26 05:49:00;;;;;;;154.40;66.35;;;3.40;99.90;;;;;;5129343;28;20085;-84
2022/03/26 05:51:44;;;;;;;156.80;68.20;;;4.90;99.90;;;;;;5126361;28;20046;-85
2022/03/26 05:54:28;;;;;;;168.32;72.13;;;3.40;99.90;;;;;;5119496;28;20050;-85
2022/03/26 05:57:13;;;;;;;161.88;68.85;;;3.40;99.90;;;;;;5101768;28;20047;-85
2022/03/26 05:59:57;;;;;;;183.10;72.05;;;3.40;99.90;;;;;;5156764;27;20047;-85
2022/03/26 06:02:42;;;;;;;161.10;68.45;;;3.40;99.90;;;;;;5131911;28;20168;-86
2022/03/26 06:05:29;;;;;;;175.57;73.60;;;4.50;99.90;;;;;;5159186;27;20046;-85
2022/03/26 06:08:14;;;;;;;171.90;68.72;;;5.50;99.90;;;;;;5100179;28;20039;-84
2022/03/26 06:10:58;;;;;;;162.93;75.65;;;4.20;99.90;;;;;;5111928;28;20050;-84
2022/03/26 06:13:46;;;;;;;171.43;70.93;;;3.90;99.90;;;;;;5116044;28;20085;-86
2022/03/26 06:16:34;;;;;;;173.80;73.65;;;4.80;99.90;;;;;;5122559;28;20030;-85
2022/03/26 06:19:18;;;;;;;178.23;72.95;;;3.80;99.90;;;;;;5114648;28;20099;-85
2022/03/26 06:22:02;;;;;;;;;;;3.70;99.90;;;;;;5115714;28;20043;-84
2022/03/26 06:24:47;;;;;;;190.27;75.18;;;3.70;99.90;;;;;;5100481;28;19965;-87
2022/03/26 06:27:31;;;;;;;183.88;75.45;;;4.40;99.90;;;;;;5142683;27;20502;-85
2022/03/26 06:30:16;;;;;;;221.98;83.18;;;5.30;99.90;;;;;;5099921;28;20124;-85
2022/03/26 06:33:01;;;;;;;204.02;82.47;;;3.90;99.90;;;;;;5099356;28;20450;-85
2022/03/26 06:35:49;;;;;;;192.73;80.90;;;3.70;99.90;;;;;;5143261;27;20035;-85
2022/03/26 06:38:38;;;;;;;179.85;78.70;;;4.40;99.90;;;;;;5143368;27;20064;-85
2022/03/26 06:41:23;;;;;;;166.75;72.70;;;5.80;99.90;;;;;;5114849;28;20043;-85
2022/03/26 06:44:08;;;;;;;167.57;73.75;;;4.50;99.90;;;;;;5098584;28;20042;-85
2022/03/26 06:46:52;;;;;;;178.75;78.22;;;4.70;99.90;;;;;;5114191;28;20070;-85
2022/03/26 06:49:37;;;;;;;181.50;75.10;;;5.20;99.90;;;;;;5085008;28;20096;-85
2022/03/26 06:52:23;;;;;;;200.02;79.03;;;5.90;99.90;;;;;;5142929;27;20395;-85
2022/03/26 06:55:08;;;;;;;169.45;76.00;;;4.80;99.90;;;;;;5142221;27;20128;-85
2022/03/26 06:57:53;;;;;;;181.55;81.68;;;4.90;99.90;;;;;;5113594;28;20066;-85
2022/03/26 07:00:37;;;;;;;169.00;78.78;;;6.40;99.90;;;;;;5121999;27;20047;-85
2022/03/26 07:03:24;;;;;;;163.98;77.28;;;5.80;99.90;;;;;;5107436;28;20086;-85
2022/03/26 07:06:09;;;;;;;160.27;76.70;;;5.50;99.90;;;;;;5121348;27;20039;-85
2022/03/26 07:08:54;;;;;;;160.65;74.57;;;5.40;99.90;;;;;;5121448;27;20043;-86
2022/03/26 07:11:38;;;;;;;154.63;73.90;;;7.30;99.90;;;;;;5092755;28;20093;-84
2022/03/26 07:14:22;;;;;;;158.05;73.55;;;7.70;99.90;;;;;;5121639;27;20055;-85
2022/03/26 07:17:07;;;;;;;156.20;74.38;;;6.20;99.90;;;;;;5093328;28;20137;-85
2022/03/26 07:19:51;;;;;;;143.82;68.70;;;7.10;99.90;;;;;;5092739;28;20541;-84
2022/03/26 07:22:36;;;;;;;147.50;68.80;;;6.60;99.90;;;;;;5121424;27;20511;-88
2022/03/26 07:25:20;;;;;;;152.20;69.72;;;8.10;99.90;;;;;;5091352;28;20411;-85
2022/03/26 07:28:05;;;;;;;133.43;66.80;;;7.00;99.90;;;;;;5090789;28;20039;-86
2022/03/26 07:30:50;;;;;;;134.88;62.63;;;7.70;99.90;;;;;;5078383;28;20123;-90
2022/03/26 07:33:34;;;;;;;130.45;64.80;;;8.60;99.90;;;;;;5092655;28;20039;-85
2022/03/26 07:36:18;;;;;;;117.32;60.45;;;10.00;99.90;;;;;;5091817;28;20073;-85
2022/03/26 07:39:03;;;;;;;113.20;56.33;;;10.10;99.90;;;;;;5105847;28;20047;-86
2022/03/26 07:41:47;;;;;;;;;;;10.80;99.90;;;;;;5078538;28;20086;-85
2022/03/26 07:44:32;;;;;;;104.38;53.80;;;11.40;99.90;;;;;;5077784;28;19950;-86
2022/03/26 07:47:16;;;;;;;103.47;56.17;;;12.00;99.90;;;;;;5092498;28;20050;-86
2022/03/26 07:50:00;;;;;;;103.75;53.88;;;12.70;99.90;;;;;;5091492;28;20158;-87
2022/03/26 07:52:47;;;;;;;99.28;53.85;;;13.40;99.90;;;;;;5092059;28;20043;-86
2022/03/26 07:55:31;;;;;;;98.40;52.33;;;13.80;99.90;;;;;;5093153;28;20035;-86
2022/03/26 07:58:15;;;;;;;;;;;14.10;99.90;;;;;;5092919;28;20039;-85
2022/03/26 08:00:59;;;;;;;98.00;51.92;;;14.30;99.90;;;;;;5092513;28;20363;-87
2022/03/26 08:03:44;;;;;;;91.93;49.88;;;14.40;99.90;;;;;;5092877;28;20093;-85
2022/03/26 08:06:28;;;;;;;92.45;52.45;;;14.80;99.90;;;;;;5091885;28;20085;-85
2022/03/26 08:09:12;;;;;;;98.25;52.80;;;14.70;99.90;;;;;;5091144;28;20047;-83
2022/03/26 08:11:57;;;;;;;85.60;48.70;;;14.50;99.90;;;;;;5077418;28;20168;-85
2022/03/26 08:14:41;;;;;;;92.65;51.72;;;14.20;99.90;;;;;;5091520;28;20428;-84
2022/03/26 08:17:28;;;;;;;86.28;49.17;;;13.70;99.90;;;;;;5105871;28;20101;-85
2022/03/26 08:20:12;;;;;;;82.18;44.72;;;13.30;99.90;;;;;;5092101;28;20043;-85
2022/03/26 08:22:57;;;;;;;94.90;49.75;;;13.10;99.90;;;;;;5077290;28;20043;-85
2022/03/26 08:28:44;;;;;;;87.45;49.38;;;12.90;99.90;;;;;;5092491;28;20043;-84
2022/03/26 08:31:31;;;;;;;81.80;44.40;;;13.00;99.90;;;;;;5091195;28;20101;-84
2022/03/26 08:34:15;;;;;;;79.30;45.47;;;13.10;99.90;;;;;;5091495;28;20031;-85
2022/03/26 08:36:59;;;;;;;74.53;42.28;;;13.20;99.90;;;;;;5094891;28;20461;-84
2022/03/26 08:39:43;;;;;;;72.20;42.35;;;13.40;99.90;;;;;;5137900;27;20047;-82
2022/03/26 08:42:27;;;;;;;76.80;44.72;;;13.50;99.90;;;;;;5119516;27;20092;-83
2022/03/26 08:45:11;;;;;;;68.72;36.95;;;13.50;99.90;;;;;;5090635;28;20043;-84
2022/03/26 08:47:56;;;;;;;56.20;32.92;;;13.60;99.90;;;;;;5091316;28;20448;-84
2022/03/26 08:50:40;;;;;;;50.22;28.60;;;13.70;99.90;;;;;;5091166;28;20063;-84
2022/03/26 08:53:25;;;;;;;53.15;28.77;;;13.80;99.90;;;;;;5109350;28;20103;-84
2022/03/26 08:56:10;;;;;;;52.65;29.88;;;13.90;99.90;;;;;;5095871;28;20119;-84
2022/03/26 08:58:57;;;;;;;60.50;33.42;;;14.00;99.80;;;;;;5096393;28;20411;-84
2022/03/26 09:01:42;;;;;;;53.28;30.45;;;14.20;99.90;;;;;;5110177;27;20050;-84
2022/03/26 09:04:26;;;;;;;52.58;32.90;;;14.40;99.90;;;;;;5094654;28;20723;-84
2022/03/26 09:07:12;;;;;;;56.63;35.00;;;14.60;99.80;;;;;;5094722;28;20063;-85
2022/03/26 09:09:56;;;;;;;55.42;33.13;;;14.80;99.90;;;;;;5095109;28;20105;-83
2022/03/26 09:12:40;;;;;;;60.15;34.78;;;14.90;99.70;;;;;;5094798;28;20089;-87
2022/03/26 09:15:31;;;;;;;53.25;33.08;;;14.90;99.60;;;;;;5080421;28;20475;-88
2022/03/26 09:18:15;;;;;;;46.35;29.63;;;13.40;99.40;;;;;;5095414;28;20039;-85
2022/03/26 09:20:59;;;;;;;44.55;27.48;;;14.80;99.90;;;;;;5095934;28;20491;-85
2022/03/26 09:23:44;;;;;;;41.45;26.63;;;14.90;99.90;;;;;;5094866;28;20035;-85
2022/03/26 09:26:28;;;;;;;44.47;29.20;;;15.00;99.80;;;;;;5094234;28;20043;-85
2022/03/26 09:29:12;;;;;;;42.65;27.40;;;15.10;99.90;;;;;;5108914;28;20047;-86
2022/03/26 09:32:00;;;;;;;39.90;25.80;;;15.20;99.90;;;;;;5094855;28;20056;-85
2022/03/26 09:34:44;;;;;;;42.58;26.23;;;15.30;99.90;;;;;;5109663;28;20089;-85
2022/03/26 09:37:28;;;;;;;39.05;25.85;;;15.40;99.90;;;;;;5094821;28;20123;-86
2022/03/26 09:40:13;;;;;;;41.22;25.25;;;15.50;99.70;;;;;;5109668;27;20040;-86
2022/03/26 09:42:57;;;;;;;42.50;26.02;;;15.60;99.80;;;;;;5094705;28;20043;-85
2022/03/26 09:45:42;;;;;;;37.28;24.70;;;15.70;99.70;;;;;;5080049;28;20124;-84
2022/03/26 09:48:27;;;;;;;34.88;23.55;;;15.80;99.50;;;;;;5093911;28;20046;-84
2022/03/26 09:51:13;;;;;;;37.25;23.02;;;15.90;99.30;;;;;;5108658;28;20127;-85
2022/03/26 09:53:58;;;;;;;38.53;24.70;;;16.00;98.60;;;;;;5094798;28;20062;-85
2022/03/26 09:56:43;;;;;;;32.40;19.25;;;16.10;99.90;;;;;;5094510;28;20499;-85
2022/03/26 09:59:27;;;;;;;30.30;18.73;;;16.30;96.80;;;;;;5079390;28;20055;-85
2022/03/26 10:02:12;;;;;;;28.52;19.05;;;;;;;;;;5093876;28;20043;-85
2022/03/26 10:04:56;;;;;;;30.92;17.35;;;16.80;95.40;;;;;;5108638;28;20423;-84
2022/03/26 10:07:41;;;;;;;26.98;17.10;;;17.20;94.70;;;;;;5108485;28;20077;-85
2022/03/26 10:10:25;;;;;;;26.98;16.35;;;16.80;99.90;;;;;;5107966;28;20093;-84
2022/03/26 10:13:09;;;;;;;26.77;18.10;;;17.20;92.60;;;;;;5079535;28;20055;-84
2022/03/26 10:16:09;;;;;;;25.40;18.00;;;17.10;93.70;;;;;;5108650;28;20395;-84
2022/03/26 10:18:57;;;;;;;28.02;18.10;;;16.90;99.90;;;;;;5095034;28;20039;-84
2022/03/26 10:21:46;;;;;;;30.35;18.30;;;16.90;93.50;;;;;;5093404;28;20039;-83
2022/03/26 10:24:30;;;;;;;29.63;17.58;;;17.10;97.30;;;;;;5121978;27;20396;-84
2022/03/26 10:27:14;;;;;;;27.02;18.40;;;17.10;93.30;;;;;;5093580;28;20043;-83
2022/03/26 10:29:59;;;;;;;29.95;19.38;;;17.20;93.10;;;;;;5108108;28;20043;-83
2022/03/26 10:32:45;;;;;;;28.30;19.48;;;17.20;93.30;;;;;;5093235;28;20042;-83
2022/03/26 10:35:29;;;;;;;32.88;20.33;;;17.20;93.10;;;;;;5092857;28;20078;-83
2022/03/26 10:38:17;;;;;;;29.90;19.83;;;17.10;93.30;;;;;;5094503;28;20081;-83
2022/03/26 10:41:05;;;;;;;28.70;18.98;;;17.20;93.40;;;;;;5093320;28;20112;-83
2022/03/26 10:44:06;;;;;;;25.17;16.25;;;17.20;93.20;;;;;;5094379;28;20081;-83
2022/03/26 10:46:59;;;;;;;18.65;13.07;;;17.20;92.40;;;;;;5094386;28;20093;-83
2022/03/26 10:49:43;;;;;;;17.88;10.90;;;17.30;92.50;;;;;;5122167;27;20130;-83
2022/03/26 10:52:30;;;;;;;17.05;12.15;;;17.40;91.50;;;;;;5094007;28;20035;-83
2022/03/26 10:55:16;;;;;;;18.77;11.70;;;17.50;91.20;;;;;;5078775;28;20467;-83
2022/03/26 10:58:04;;;;;;;17.27;11.27;;;17.60;90.60;;;;;;5122117;27;20115;-83
2022/03/26 11:00:48;;;;;;;18.80;11.35;;;17.70;90.00;;;;;;5093440;28;20088;-83
2022/03/26 11:03:36;;;;;;;15.48;11.50;;;17.70;90.60;;;;;;5093261;28;20043;-83
2022/03/26 11:06:25;;;;;;;14.70;10.88;;;17.80;90.30;;;;;;5092296;28;20533;-83
2022/03/26 11:09:10;;;;;;;16.92;10.77;;;17.80;87.80;;;;;;5111679;28;20124;-83
2022/03/26 11:11:56;;;;;;;19.00;10.40;;;17.80;89.60;;;;;;5098659;28;20076;-84
2022/03/26 11:14:43;;;;;;;18.13;11.25;;;17.80;90.00;;;;;;5096518;28;20055;-82
2022/03/26 11:17:30;;;;;;;12.00;9.77;;;17.90;89.40;;;;;;5111769;28;20054;-83
2022/03/26 11:20:47;;;;;;;14.50;9.60;;;17.90;88.00;;;;;;5112955;28;20490;-81
2022/03/26 11:23:43;;;;;;;14.88;10.63;;;17.90;86.60;;;;;;5113193;28;20034;-84
2022/03/26 11:26:59;;;;;;;14.02;10.20;;;18.00;87.00;;;;;;5112476;28;20532;-86
2022/03/26 11:30:05;;;;;;;13.13;8.85;;;18.10;84.90;;;;;;5112452;28;20460;-83
2022/03/26 11:32:55;;;;;;;13.18;8.75;;;18.10;82.70;;;;;;5113977;28;20120;-83
2022/03/26 11:35:59;;;;;;;12.13;7.68;;;18.00;84.40;;;;;;5113072;28;20035;-83
2022/03/26 11:38:55;;;;;;;12.18;7.35;;;18.10;83.40;;;;;;5112124;28;20097;-83
2022/03/26 11:41:41;;;;;;;11.82;6.50;;;18.10;83.60;;;;;;5113226;28;20088;-84
2022/03/26 11:44:26;;;;;;;8.02;5.82;;;18.10;82.10;;;;;;5113594;28;20128;-85
2022/03/26 11:53:35;;;;;;;11.23;6.32;;;18.00;81.70;;;;;;5111843;28;20042;-84
2022/03/26 11:56:33;;;;;;;10.50;6.32;;;18.10;79.90;;;;;;5112796;28;20396;-86
2022/03/26 11:59:17;;;;;;;10.70;6.88;;;18.00;80.90;;;;;;5111781;28;20042;-85
2022/03/26 12:02:34;;;;;;;11.52;6.47;;;17.90;82.00;;;;;;5111696;28;20047;-82
2022/03/26 12:08:54;;;;;;;13.80;7.15;;;18.00;82.10;;;;;;5098206;28;20106;-82
2022/03/26 12:12:04;;;;;;;8.50;6.38;;;18.10;80.90;;;;;;5110195;28;20176;-82
2022/03/26 12:15:08;;;;;;;10.13;6.30;;;18.20;81.80;;;;;;5110958;28;20116;-84
2022/03/26 12:18:10;;;;;;;9.35;5.63;;;18.20;87.10;;;;;;5111029;28;20163;-85
2022/03/26 12:21:04;;;;;;;8.70;5.85;;;18.00;91.00;;;;;;5110931;28;20037;-85
2022/03/26 12:23:52;;;;;;;7.82;5.30;;;18.00;81.00;;;;;;5110787;28;20034;-82
2022/03/26 12:26:36;;;;;;;11.10;5.60;;;18.00;81.50;;;;;;5111547;28;20039;-83
2022/03/26 12:29:21;;;;;;;7.88;4.97;;;18.00;82.30;;;;;;5095458;28;20399;-83
2022/03/26 12:32:06;;;;;;;7.95;4.68;;;18.20;82.20;;;;;;5108520;28;20099;-82
2022/03/26 12:35:02;;;;;;;7.18;4.20;;;18.20;82.00;;;;;;5120048;27;20062;-82
2022/03/26 12:37:50;;;;;;;7.70;4.43;;;18.30;81.10;;;;;;5110468;28;20081;-82
2022/03/26 12:40:36;;;;;;;7.00;4.72;;;18.30;80.40;;;;;;5112160;28;20402;-82
2022/03/26 12:43:22;;;;;;;7.97;4.82;;;18.30;80.30;;;;;;5111754;28;20387;-82
2022/03/26 12:46:09;;;;;;;9.68;5.25;;;18.30;80.90;;;;;;5112893;28;20043;-83
2022/03/26 12:48:54;;;;;;;7.47;5.03;;;18.40;80.60;;;;;;5110856;28;20141;-83
2022/03/26 12:51:38;;;;;;;8.10;4.57;;;18.40;79.80;;;;;;5111325;28;20142;-83
2022/03/26 12:54:23;;;;;;;8.60;4.53;;;18.20;79.70;;;;;;5097302;28;20103;-82
2022/03/26 12:57:07;;;;;;;8.07;4.88;;;18.20;77.50;;;;;;5112507;28;20078;-82
2022/03/26 12:59:56;;;;;;;7.38;4.30;;;18.20;79.10;;;;;;5096572;28;20042;-82
2022/03/26 13:02:40;;;;;;;7.55;4.80;;;18.10;77.30;;;;;;5112140;28;20057;-84
2022/03/26 13:05:31;;;;;;;7.57;3.97;;;18.00;79.60;;;;;;5097669;28;20564;-82
2022/03/26 13:08:15;;;;;;;6.43;3.85;;;18.00;77.10;;;;;;5111697;28;20082;-85
2022/03/26 13:11:08;;;;;;;6.55;3.75;;;17.70;78.20;;;;;;5110839;28;20553;-84
2022/03/26 13:13:54;;;;;;;5.00;2.85;;;17.80;76.90;;;;;;5111894;28;20055;-85
2022/03/26 13:16:39;;;;;;;7.25;3.35;;;17.70;77.40;;;;;;5112492;28;20042;-85
2022/03/26 13:19:33;;;;;;;6.32;2.92;;;17.50;78.80;;;;;;5097082;28;20038;-85
2022/03/26 13:22:18;;;;;;;2.80;1.70;;;19.10;81.30;;;;;;5112482;28;20495;-84
2022/03/26 13:25:04;;;;;;;8.43;3.08;;;17.60;82.10;;;;;;5110767;28;20039;-84
2022/03/26 13:27:48;;;;;;;6.47;3.92;;;17.60;80.10;;;;;;5110732;28;20074;-84
2022/03/26 13:30:32;;;;;;;5.28;3.13;;;17.60;82.00;;;;;;5111101;28;20067;-84
2022/03/26 13:33:19;;;;;;;4.53;2.75;;;17.50;83.40;;;;;;5096876;28;20453;-84
2022/03/26 13:36:05;;;;;;;6.50;3.20;;;17.50;83.50;;;;;;5110791;28;20093;-85
2022/03/26 13:38:49;;;;;;;6.00;2.60;;;17.30;84.10;;;;;;5114035;28;20039;-85
2022/03/26 13:41:36;;;;;;;4.65;2.67;;;17.10;84.40;;;;;;5086418;28;20494;-85
2022/03/26 13:44:24;;;;;;;5.70;3.00;;;16.90;85.80;;;;;;5114968;28;20105;-85
2022/03/26 13:47:17;;;;;;;6.18;3.47;;;16.70;85.90;;;;;;5114353;28;20042;-85
2022/03/26 13:50:09;;;;;;;6.63;3.25;;;16.60;87.30;;;;;;5114355;28;20103;-85
2022/03/26 13:52:53;;;;;;;6.38;3.13;;;16.60;91.10;;;;;;5115283;28;20039;-85
2022/03/26 13:55:38;;;;;;;8.27;3.85;;;16.60;89.20;;;;;;5114801;28;20161;-85
2022/03/26 13:58:23;;;;;;;5.97;3.60;;;16.60;89.30;;;;;;5086066;28;20456;-84
2022/03/26 14:01:08;;;;;;;9.63;4.20;;;16.70;91.60;;;;;;5099774;28;20154;-85
2022/03/26 14:03:57;;;;;;;7.70;4.05;;;16.70;89.90;;;;;;5114088;28;20035;-86
2022/03/26 14:06:41;;;;;;;7.47;3.92;;;16.70;90.20;;;;;;5114523;28;20441;-85
2022/03/26 14:09:30;;;;;;;6.78;3.70;;;16.70;90.40;;;;;;5100286;28;20047;-86
2022/03/26 14:12:13;;;;;;;7.75;3.15;;;16.70;90.60;;;;;;5119391;28;20046;-85
2022/03/26 14:14:58;;;;;;;5.70;3.15;;;16.80;90.30;;;;;;5099565;28;20066;-86
2022/03/26 14:17:44;;;;;;;6.53;3.53;;;16.80;90.50;;;;;;5113943;28;20109;-85
2022/03/26 14:20:32;;;;;;;6.50;3.30;;;16.70;90.50;;;;;;5099791;28;20449;-86
2022/03/26 14:23:19;;;;;;;5.65;3.35;;;16.80;90.50;;;;;;5099995;28;20486;-84
2022/03/26 14:26:03;;;;;;;7.18;3.13;;;16.90;90.30;;;;;;5113679;28;20576;-84